Time;durP1;ratioP1;P1;durP2;ratioP2;P2;SDS_P1;SDS_P2;PMS_P1;PMS_P2;Temp;Humidity;BMP_temperature;BMP_pressure;BME280_temperature;BME280_humidity;BME280_pressure;Samples;Min_cycle;Max_cycle;Signal;HPM_P1;HPM_P2
2022/10/02 03:01:00;;;;;;;0.70;0.70;;;14.30;92.30;;;;;;5924008;23;20275;-74
2022/10/02 03:03:27;;;;;;;0.70;0.63;;;14.40;92.00;;;;;;4957608;29;20447;-73
2022/10/02 03:06:03;;;;;;;0.60;0.60;;;14.50;91.50;;;;;;4957432;29;20479;-73
2022/10/02 03:08:34;;;;;;;0.70;0.70;;;14.70;90.50;;;;;;4957563;29;20438;-73
2022/10/02 03:11:10;;;;;;;0.67;0.67;;;14.80;90.30;;;;;;4957447;28;20530;-73
2022/10/02 03:13:50;;;;;;;0.87;0.70;;;14.90;90.00;;;;;;4957420;28;20431;-73
2022/10/02 03:16:30;;;;;;;0.83;0.80;;;14.90;89.80;;;;;;4958893;29;20431;-72
2022/10/02 03:19:10;;;;;;;0.70;0.60;;;15.00;89.50;;;;;;4957051;29;20446;-74
2022/10/02 03:21:44;;;;;;;0.60;0.60;;;15.00;88.80;;;;;;4956417;28;20486;-73
2022/10/02 03:24:17;;;;;;;0.80;0.70;;;14.90;89.10;;;;;;4957257;29;20430;-73
2022/10/02 03:26:51;;;;;;;0.97;0.60;;;14.90;89.30;;;;;;4957144;29;20478;-74
2022/10/02 03:29:23;;;;;;;0.70;0.70;;;14.70;89.40;;;;;;4957746;29;20851;-74
2022/10/02 03:31:51;;;;;;;0.70;0.70;;;14.70;89.90;;;;;;4956964;28;20467;-73
2022/10/02 03:34:19;;;;;;;0.70;0.70;;;14.60;89.80;;;;;;4957010;29;20451;-74
2022/10/02 03:36:47;;;;;;;1.00;0.70;;;14.50;90.60;;;;;;4957026;29;20451;-73
2022/10/02 03:39:14;;;;;;;1.10;0.70;;;14.50;90.60;;;;;;4956649;29;20859;-74
2022/10/02 03:41:41;;;;;;;0.80;0.80;;;14.60;90.20;;;;;;4956768;28;20475;-74
2022/10/02 03:44:07;;;;;;;0.70;0.70;;;14.80;90.00;;;;;;4956826;29;20455;-74
2022/10/02 03:46:34;;;;;;;0.77;0.63;;;14.80;89.50;;;;;;4956732;29;20492;-74
2022/10/02 03:49:02;;;;;;;1.10;0.80;;;14.80;89.40;;;;;;4956370;29;20819;-74
2022/10/02 03:51:29;;;;;;;0.80;0.70;;;14.80;89.90;;;;;;4956589;28;20522;-74
2022/10/02 03:53:56;;;;;;;0.77;0.60;;;14.90;89.40;;;;;;4956593;29;20447;-74
2022/10/02 03:56:35;;;;;;;0.70;0.63;;;14.70;89.30;;;;;;4956523;29;20454;-73
2022/10/02 03:59:05;;;;;;;0.70;0.70;;;14.60;90.10;;;;;;4956604;29;20436;-74
2022/10/02 04:01:35;;;;;;;0.80;0.80;;;14.60;89.80;;;;;;4955951;28;21027;-74
2022/10/02 04:04:09;;;;;;;0.80;0.80;;;14.40;90.30;;;;;;4956381;29;20454;-74
2022/10/02 04:06:43;;;;;;;0.70;0.70;;;14.50;90.50;;;;;;4956284;29;20483;-74
2022/10/02 04:09:13;;;;;;;0.70;0.70;;;14.60;89.90;;;;;;4956355;29;20435;-74
2022/10/02 04:11:44;;;;;;;0.67;0.63;;;14.50;90.20;;;;;;4956213;28;20522;-74
2022/10/02 04:14:17;;;;;;;0.70;0.70;;;14.50;90.50;;;;;;4956316;29;20498;-74
2022/10/02 04:16:50;;;;;;;0.83;0.70;;;14.60;90.20;;;;;;4956239;29;20442;-74
2022/10/02 04:19:23;;;;;;;0.60;0.60;;;14.70;89.90;;;;;;4956140;29;20439;-74
2022/10/02 04:21:56;;;;;;;0.83;0.70;;;14.80;89.60;;;;;;4956039;28;20479;-74
2022/10/02 04:24:35;;;;;;;0.63;0.63;;;14.80;89.50;;;;;;4956114;29;20416;-74
2022/10/02 04:27:05;;;;;;;1.37;0.80;;;14.90;89.00;;;;;;4956015;29;20561;-74
2022/10/02 04:29:37;;;;;;;0.90;0.80;;;14.90;88.60;;;;;;4956098;29;20450;-74
2022/10/02 04:32:12;;;;;;;1.00;0.80;;;15.00;88.80;;;;;;4955234;28;20916;-74
2022/10/02 04:34:40;;;;;;;1.10;0.70;;;15.00;88.60;;;;;;4956002;28;20526;-74
2022/10/02 04:37:25;;;;;;;1.67;1.20;;;14.90;88.80;;;;;;4955812;29;20443;-74
2022/10/02 04:40:07;;;;;;;0.80;0.80;;;14.90;88.80;;;;;;4955550;29;20942;-74
2022/10/02 04:42:47;;;;;;;0.70;0.70;;;15.00;88.80;;;;;;4955715;28;20471;-74
2022/10/02 04:45:31;;;;;;;0.70;0.60;;;14.90;88.10;;;;;;4955508;29;20852;-74
2022/10/02 04:48:53;;;;;;;0.77;0.70;;;14.80;88.70;;;;;;4955661;29;20471;-74
2022/10/02 04:51:34;;;;;;;0.80;0.70;;;14.80;88.60;;;;;;4955621;28;21045;-74
2022/10/02 04:54:21;;;;;;;0.70;0.63;;;14.80;89.00;;;;;;4955804;29;20450;-74
2022/10/02 04:57:09;;;;;;;0.70;0.70;;;14.80;88.80;;;;;;4955561;29;20428;-74
2022/10/02 04:59:52;;;;;;;0.70;0.70;;;14.90;88.80;;;;;;4955298;29;20911;-74
2022/10/02 05:02:32;;;;;;;1.10;0.70;;;15.00;88.20;;;;;;4955168;28;20542;-74
2022/10/02 05:05:14;;;;;;;0.70;0.70;;;15.10;87.90;;;;;;4955527;29;20442;-74
2022/10/02 05:07:55;;;;;;;0.90;0.70;;;15.10;87.80;;;;;;4955433;28;20474;-74
2022/10/02 05:10:37;;;;;;;0.70;0.70;;;15.20;87.50;;;;;;4955424;29;20435;-74
2022/10/02 05:13:15;;;;;;;0.67;0.67;;;15.30;87.30;;;;;;4955437;29;20443;-74
2022/10/02 05:16:03;;;;;;;0.70;0.63;;;15.30;87.10;;;;;;4955419;29;20435;-74
2022/10/02 05:18:48;;;;;;;0.80;0.80;;;15.40;86.90;;;;;;4952534;29;20978;-74
2022/10/02 05:21:34;;;;;;;0.87;0.87;;;15.40;86.70;;;;;;4955255;28;20474;-74
2022/10/02 05:24:20;;;;;;;0.97;0.73;;;15.40;86.70;;;;;;4955338;29;20439;-74
2022/10/02 05:27:08;;;;;;;0.80;0.77;;;15.40;86.60;;;;;;4955209;29;20475;-74
2022/10/02 05:29:50;;;;;;;1.23;0.70;;;15.40;86.50;;;;;;4955362;29;20431;-74
2022/10/02 05:32:33;;;;;;;1.03;0.90;;;15.40;86.50;;;;;;4955115;28;20467;-74
2022/10/02 05:35:17;;;;;;;0.70;0.70;;;15.40;86.50;;;;;;4954902;29;20447;-74
2022/10/02 05:37:57;;;;;;;0.77;0.70;;;15.40;86.40;;;;;;4955194;29;20435;-74
2022/10/02 05:40:30;;;;;;;0.80;0.77;;;15.40;86.60;;;;;;4955059;28;20439;-74
2022/10/02 05:43:05;;;;;;;0.90;0.70;;;15.40;86.50;;;;;;4955123;28;20446;-74
2022/10/02 05:45:37;;;;;;;0.80;0.70;;;15.40;86.50;;;;;;4958665;29;20459;-74
2022/10/02 05:48:12;;;;;;;1.00;0.90;;;15.40;86.50;;;;;;4958852;29;20466;-74
2022/10/02 05:50:41;;;;;;;0.83;0.67;;;15.50;86.50;;;;;;4958765;28;20435;-74
2022/10/02 05:53:17;;;;;;;0.60;0.60;;;15.40;86.50;;;;;;4958788;29;20462;-74
2022/10/02 05:55:52;;;;;;;2.23;0.80;;;15.40;86.60;;;;;;4958837;29;20448;-74
2022/10/02 05:58:25;;;;;;;0.70;0.70;;;15.40;86.50;;;;;;4958771;29;20486;-74
2022/10/02 06:00:58;;;;;;;0.83;0.80;;;15.40;86.60;;;;;;4958544;28;20541;-74
2022/10/02 06:03:33;;;;;;;0.90;0.73;;;15.40;86.70;;;;;;4958691;29;20502;-74
2022/10/02 06:06:06;;;;;;;0.80;0.80;;;15.40;86.80;;;;;;4958645;28;20447;-74
2022/10/02 06:08:40;;;;;;;0.70;0.70;;;15.30;86.90;;;;;;4958221;29;20844;-74
2022/10/02 06:11:13;;;;;;;0.70;0.63;;;15.20;86.80;;;;;;4958488;28;20481;-74
2022/10/02 06:13:45;;;;;;;0.70;0.70;;;15.00;87.50;;;;;;4958535;29;20443;-74
2022/10/02 06:16:21;;;;;;;1.03;0.80;;;14.90;87.70;;;;;;4958432;29;20849;-74
2022/10/02 06:18:53;;;;;;;1.00;0.73;;;14.60;89.00;;;;;;4958537;29;20434;-74
2022/10/02 06:21:28;;;;;;;0.70;0.70;;;14.50;89.60;;;;;;4958039;28;21034;-74
2022/10/02 06:23:59;;;;;;;0.80;0.80;;;14.60;89.80;;;;;;4958547;29;20430;-74
2022/10/02 06:26:35;;;;;;;0.80;0.73;;;14.70;89.60;;;;;;4958093;29;20474;-74
2022/10/02 06:29:05;;;;;;;0.70;0.70;;;14.80;89.60;;;;;;4958224;29;20442;-74
2022/10/02 06:31:39;;;;;;;0.80;0.70;;;14.80;89.50;;;;;;4958148;28;20467;-74
2022/10/02 06:34:10;;;;;;;0.70;0.70;;;14.80;89.30;;;;;;4958140;29;20434;-74
2022/10/02 06:36:53;;;;;;;0.80;0.80;;;14.70;89.80;;;;;;4957675;29;20947;-74
2022/10/02 06:39:38;;;;;;;0.70;0.70;;;14.80;89.70;;;;;;4957748;29;20805;-74
2022/10/02 06:42:21;;;;;;;0.80;0.80;;;14.90;89.70;;;;;;4957967;28;20493;-75
2022/10/02 06:44:55;;;;;;;0.70;0.70;;;14.90;89.60;;;;;;4957672;29;20973;-75
2022/10/02 06:47:34;;;;;;;0.80;0.80;;;15.00;89.10;;;;;;4957932;29;20502;-75
2022/10/02 06:50:18;;;;;;;0.60;0.60;;;15.20;88.70;;;;;;4958518;29;20453;-75
2022/10/02 06:52:51;;;;;;;0.80;0.80;;;15.20;88.60;;;;;;4957760;28;20475;-75
2022/10/02 06:55:34;;;;;;;1.00;0.80;;;15.20;88.20;;;;;;4956776;28;20436;-75
2022/10/02 06:58:20;;;;;;;0.70;0.70;;;15.30;88.50;;;;;;4957386;29;20927;-75
2022/10/02 07:00:52;;;;;;;0.80;0.70;;;15.40;88.30;;;;;;4957415;28;20479;-75
2022/10/02 07:03:37;;;;;;;0.70;0.60;;;15.50;88.00;;;;;;4957328;29;20439;-75
2022/10/02 07:06:20;;;;;;;0.63;0.63;;;15.60;87.70;;;;;;4957216;29;20907;-75
2022/10/02 07:09:07;;;;;;;0.90;0.70;;;15.70;87.50;;;;;;4957459;29;20475;-75
2022/10/02 07:11:43;;;;;;;0.80;0.70;;;15.70;87.30;;;;;;4957393;28;20483;-75
2022/10/02 07:14:40;;;;;;;0.90;0.90;;;15.80;87.20;;;;;;4957526;29;20444;-76
2022/10/02 07:17:34;;;;;;;0.80;0.60;;;15.80;87.00;;;;;;4945043;28;20958;-75
2022/10/02 07:20:30;;;;;;;0.70;0.70;;;15.90;86.70;;;;;;4957390;29;20462;-73
2022/10/02 07:23:16;;;;;;;0.80;0.80;;;16.00;86.70;;;;;;4957248;29;20435;-73
2022/10/02 07:25:54;;;;;;;0.70;0.70;;;16.00;86.30;;;;;;4957326;29;20427;-75
2022/10/02 07:28:29;;;;;;;1.10;0.83;;;16.00;86.30;;;;;;4957919;29;20549;-73
2022/10/02 07:31:05;;;;;;;0.70;0.70;;;16.10;86.20;;;;;;4958010;28;20477;-73
2022/10/02 07:33:47;;;;;;;1.90;0.80;;;16.10;86.20;;;;;;4956934;29;20490;-73
2022/10/02 07:36:22;;;;;;;0.80;0.63;;;16.10;86.20;;;;;;4957351;28;20854;-73
2022/10/02 07:39:07;;;;;;;0.70;0.70;;;16.10;86.20;;;;;;4957276;29;20431;-74
2022/10/02 07:41:58;;;;;;;0.80;0.70;;;16.10;86.30;;;;;;4957014;28;20482;-73
2022/10/02 07:44:54;;;;;;;0.80;0.80;;;16.10;86.30;;;;;;4957061;29;20499;-73
2022/10/02 07:47:38;;;;;;;0.83;0.83;;;16.10;86.20;;;;;;4956868;29;20475;-73
2022/10/02 07:50:11;;;;;;;0.80;0.80;;;16.10;86.40;;;;;;4956921;29;20448;-74
2022/10/02 07:52:46;;;;;;;0.70;0.70;;;16.10;86.80;;;;;;4957036;28;20486;-73
2022/10/02 07:55:18;;;;;;;0.70;0.60;;;16.20;86.80;;;;;;4957223;29;20915;-73
2022/10/02 07:57:53;;;;;;;0.70;0.70;;;16.30;87.00;;;;;;4956774;29;20443;-75
2022/10/02 08:00:23;;;;;;;0.80;0.70;;;16.40;86.80;;;;;;4957136;29;20494;-76
2022/10/02 08:02:54;;;;;;;1.40;0.77;;;16.50;85.20;;;;;;4956324;29;20466;-75
2022/10/02 08:05:24;;;;;;;0.80;0.70;;;16.60;84.90;;;;;;4956386;29;20439;-75
2022/10/02 08:07:56;;;;;;;0.63;0.63;;;16.70;85.00;;;;;;4956180;28;20483;-76
2022/10/02 08:10:26;;;;;;;0.70;0.70;;;16.70;85.00;;;;;;4956297;28;20442;-75
2022/10/02 08:13:00;;;;;;;0.70;0.60;;;16.80;84.80;;;;;;4955959;28;20882;-74
2022/10/02 08:15:32;;;;;;;1.23;0.70;;;16.90;84.40;;;;;;4956295;29;20439;-75
2022/10/02 08:18:06;;;;;;;0.90;0.83;;;16.90;84.10;;;;;;4956480;29;20442;-75
2022/10/02 08:20:37;;;;;;;1.37;0.80;;;16.80;83.70;;;;;;4955771;28;20811;-75
2022/10/02 08:23:09;;;;;;;0.70;0.70;;;16.90;83.60;;;;;;4956274;29;20435;-75
2022/10/02 08:25:43;;;;;;;0.80;0.80;;;17.10;83.90;;;;;;4956166;29;20842;-74
2022/10/02 08:28:18;;;;;;;0.90;0.70;;;17.10;84.00;;;;;;4955987;29;20469;-75
2022/10/02 08:30:45;;;;;;;0.90;0.70;;;17.20;83.50;;;;;;4956023;28;20562;-74
2022/10/02 08:33:16;;;;;;;0.70;0.70;;;17.20;83.30;;;;;;4956044;29;20450;-75
2022/10/02 08:36:10;;;;;;;0.70;0.60;;;17.20;82.90;;;;;;4956965;28;20459;-76
2022/10/02 08:38:45;;;;;;;0.73;0.70;;;17.00;82.50;;;;;;4956004;29;20907;-76
2022/10/02 08:41:49;;;;;;;0.70;0.70;;;17.10;83.20;;;;;;4955624;28;20840;-76
2022/10/02 08:44:50;;;;;;;0.80;0.80;;;17.10;82.90;;;;;;4956191;29;20507;-75
2022/10/02 08:47:59;;;;;;;0.90;0.60;;;17.00;84.00;;;;;;4955924;29;20435;-75
2022/10/02 08:51:00;;;;;;;0.60;0.60;;;16.60;84.30;;;;;;4909094;28;20462;-75
2022/10/02 08:53:58;;;;;;;0.60;0.60;;;16.40;86.30;;;;;;4956329;28;20442;-76
2022/10/02 08:56:37;;;;;;;0.60;0.50;;;16.50;87.30;;;;;;4955610;29;20439;-75
2022/10/02 08:59:40;;;;;;;0.60;0.60;;;16.80;88.10;;;;;;4955240;29;20439;-75
2022/10/02 09:02:43;;;;;;;1.00;0.70;;;16.90;86.80;;;;;;4952956;28;21101;-75
2022/10/02 09:05:55;;;;;;;1.03;0.60;;;17.20;87.70;;;;;;4955136;29;20994;-75
2022/10/02 09:09:01;;;;;;;1.70;1.30;;;17.40;84.80;;;;;;4920636;28;20498;-76
2022/10/02 09:11:56;;;;;;;1.03;0.60;;;17.50;84.40;;;;;;4955433;28;20525;-75
2022/10/02 09:14:54;;;;;;;1.07;0.80;;;17.60;86.50;;;;;;4957644;28;20446;-75
2022/10/02 09:17:39;;;;;;;0.70;0.60;;;17.80;85.10;;;;;;4955258;28;20452;-74
2022/10/02 09:20:40;;;;;;;0.70;0.60;;;18.00;85.30;;;;;;4955510;29;20447;-73
2022/10/02 09:23:41;;;;;;;1.20;0.60;;;18.20;86.10;;;;;;4955790;28;20523;-74
2022/10/02 09:26:19;;;;;;;0.60;0.50;;;18.30;85.30;;;;;;4955518;29;20493;-73
2022/10/02 09:29:15;;;;;;;0.70;0.60;;;18.50;83.90;;;;;;4955365;28;20525;-73
2022/10/02 09:32:16;;;;;;;0.70;0.70;;;18.70;83.10;;;;;;4942475;28;20480;-74
2022/10/02 09:35:19;;;;;;;0.70;0.60;;;19.00;83.70;;;;;;4955203;29;20475;-74
2022/10/02 09:38:28;;;;;;;0.60;0.60;;;19.00;82.70;;;;;;4936761;28;20505;-74
2022/10/02 09:41:31;;;;;;;0.60;0.57;;;18.90;82.90;;;;;;4955105;28;20470;-74
2022/10/02 09:44:18;;;;;;;0.60;0.50;;;18.90;82.50;;;;;;4954754;29;20974;-74
2022/10/02 09:47:18;;;;;;;0.67;0.60;;;19.00;83.30;;;;;;4955139;28;20490;-74
2022/10/02 09:50:07;;;;;;;0.60;0.50;;;19.00;84.20;;;;;;4954969;28;20566;-74
2022/10/02 09:53:08;;;;;;;0.60;0.50;;;19.20;82.80;;;;;;4954923;28;20482;-74
2022/10/02 09:56:26;;;;;;;0.60;0.50;;;19.40;82.50;;;;;;4954752;28;20850;-74
2022/10/02 09:59:28;;;;;;;0.60;0.60;;;19.40;82.00;;;;;;4895705;29;20851;-74
2022/10/02 10:02:27;;;;;;;0.90;0.60;;;19.30;81.50;;;;;;4954672;28;20479;-74
2022/10/02 10:05:31;;;;;;;0.60;0.57;;;19.10;81.50;;;;;;4954856;29;20435;-74
2022/10/02 10:08:17;;;;;;;0.67;0.60;;;18.90;82.20;;;;;;4954712;28;20475;-74
2022/10/02 10:11:12;;;;;;;0.70;0.60;;;18.80;82.30;;;;;;4954635;28;20483;-74
2022/10/02 10:14:13;;;;;;;0.60;0.50;;;18.80;83.10;;;;;;4954677;29;20443;-74
2022/10/02 10:17:24;;;;;;;0.60;0.50;;;18.60;84.10;;;;;;4954721;29;20442;-74
2022/10/02 10:20:21;;;;;;;0.60;0.50;;;18.50;84.00;;;;;;4954643;29;20526;-74
2022/10/02 10:23:20;;;;;;;0.60;0.50;;;18.60;83.90;;;;;;4954626;29;20462;-74
2022/10/02 10:26:08;;;;;;;0.60;0.50;;;18.70;84.10;;;;;;4954303;29;20896;-74
2022/10/02 10:29:03;;;;;;;0.60;0.50;;;18.70;83.90;;;;;;4954261;29;20975;-74
2022/10/02 10:32:03;;;;;;;0.70;0.70;;;19.00;83.60;;;;;;4956535;28;20477;-74
2022/10/02 10:35:02;;;;;;;0.70;0.60;;;19.10;81.60;;;;;;4928554;28;20836;-74
2022/10/02 10:40:40;;;;;;;0.70;0.60;;;18.40;81.80;;;;;;4945160;28;20608;-74
2022/10/02 10:43:50;;;;;;;0.60;0.60;;;18.10;82.70;;;;;;4958303;29;20443;-74
2022/10/02 10:46:36;;;;;;;0.80;0.70;;;17.80;84.00;;;;;;4930457;28;20502;-74
2022/10/02 10:49:29;;;;;;;0.60;0.60;;;17.60;84.30;;;;;;4957753;29;20475;-74
2022/10/02 10:52:10;;;;;;;0.60;0.60;;;17.60;84.80;;;;;;4957750;28;20466;-75
2022/10/02 10:54:54;;;;;;;0.80;0.80;;;17.50;85.50;;;;;;4957850;29;20436;-74
2022/10/02 10:57:31;;;;;;;0.70;0.70;;;17.60;85.60;;;;;;4957646;29;20431;-75
2022/10/02 11:00:23;;;;;;;0.67;0.67;;;17.50;85.30;;;;;;4958041;29;20438;-74
2022/10/02 11:03:26;;;;;;;0.70;0.70;;;17.30;86.20;;;;;;4959848;28;20467;-75
2022/10/02 11:06:37;;;;;;;0.80;0.80;;;17.40;86.20;;;;;;4959779;29;20439;-74
2022/10/02 11:09:40;;;;;;;0.80;0.70;;;17.30;85.70;;;;;;4901246;29;20525;-75
2022/10/02 11:12:43;;;;;;;0.90;0.60;;;16.90;86.70;;;;;;4901228;29;20485;-75
2022/10/02 11:15:35;;;;;;;0.70;0.70;;;16.70;87.70;;;;;;4960041;28;20455;-74
2022/10/02 11:18:13;;;;;;;0.70;0.70;;;16.70;87.90;;;;;;4961127;29;20502;-75
2022/10/02 11:21:27;;;;;;;0.97;0.97;;;16.80;88.00;;;;;;4957477;28;20927;-74
2022/10/02 11:24:17;;;;;;;0.70;0.70;;;16.70;88.10;;;;;;4897936;29;20484;-75
2022/10/02 11:26:56;;;;;;;0.67;0.67;;;16.80;87.90;;;;;;4957236;28;20435;-75
2022/10/02 11:29:53;;;;;;;0.70;0.70;;;16.70;88.10;;;;;;4956719;29;20874;-75
2022/10/02 11:32:44;;;;;;;0.70;0.70;;;16.70;88.30;;;;;;4956979;28;20534;-75
2022/10/02 11:35:28;;;;;;;0.70;0.67;;;16.70;87.90;;;;;;4956746;29;20926;-74
2022/10/02 11:38:31;;;;;;;0.80;0.70;;;16.70;88.00;;;;;;4957813;28;20854;-74
2022/10/02 11:41:20;;;;;;;0.70;0.60;;;16.80;87.80;;;;;;4956229;28;21030;-75
2022/10/02 11:44:05;;;;;;;1.13;0.70;;;16.80;87.80;;;;;;4956826;29;20431;-74
2022/10/02 11:46:51;;;;;;;0.60;0.60;;;16.70;87.60;;;;;;4956515;29;20928;-75
2022/10/02 11:49:40;;;;;;;0.60;0.60;;;16.70;87.80;;;;;;4956704;29;20474;-75
2022/10/02 11:52:18;;;;;;;0.60;0.60;;;16.70;87.50;;;;;;4956269;28;20900;-75
2022/10/02 11:54:59;;;;;;;0.70;0.60;;;16.60;87.40;;;;;;4956616;29;20435;-75
2022/10/02 11:57:34;;;;;;;0.70;0.60;;;16.50;87.90;;;;;;4956242;29;20439;-74
2022/10/02 12:00:13;;;;;;;0.83;0.70;;;16.50;87.90;;;;;;4956548;29;20805;-75
2022/10/02 12:02:49;;;;;;;0.77;0.77;;;16.40;87.80;;;;;;4956162;28;20490;-74
2022/10/02 12:05:45;;;;;;;0.60;0.60;;;16.20;88.20;;;;;;4956488;29;20467;-74
2022/10/02 12:08:19;;;;;;;0.60;0.60;;;16.10;88.90;;;;;;4959687;29;20463;-75
2022/10/02 12:10:55;;;;;;;0.60;0.50;;;16.10;89.00;;;;;;4969747;28;20468;-74
2022/10/02 12:13:48;;;;;;;0.60;0.50;;;16.10;89.00;;;;;;4969853;29;20502;-75
2022/10/02 12:16:29;;;;;;;0.60;0.60;;;16.20;89.20;;;;;;4945069;28;20455;-74
2022/10/02 12:19:13;;;;;;;0.60;0.60;;;16.30;88.80;;;;;;4969516;29;20438;-74
2022/10/02 12:27:54;;;;;;;0.60;0.60;;;16.10;88.70;;;;;;4969547;29;20515;-74
2022/10/02 12:30:27;;;;;;;0.60;0.60;;;16.10;88.60;;;;;;4969470;29;20471;-74
2022/10/02 12:33:18;;;;;;;0.60;0.60;;;16.10;88.70;;;;;;4969213;29;20435;-75
2022/10/02 12:36:16;;;;;;;0.70;0.70;;;16.20;88.50;;;;;;4969427;28;20535;-74
2022/10/02 12:38:58;;;;;;;0.70;0.70;;;16.20;88.60;;;;;;4969084;29;20443;-73
2022/10/02 12:41:56;;;;;;;0.70;0.70;;;16.20;88.20;;;;;;4968779;28;20471;-73
2022/10/02 12:44:57;;;;;;;0.70;0.70;;;16.10;88.40;;;;;;4968821;29;20443;-73
2022/10/02 12:47:40;;;;;;;0.60;0.60;;;16.10;88.30;;;;;;4968583;29;20507;-73
2022/10/02 12:50:22;;;;;;;0.60;0.60;;;16.20;88.10;;;;;;4968818;29;20479;-73
2022/10/02 12:53:29;;;;;;;0.60;0.60;;;16.20;88.10;;;;;;4960484;28;20462;-73
2022/10/02 12:56:34;;;;;;;0.60;0.50;;;16.20;88.00;;;;;;4955605;29;20494;-73
2022/10/02 12:59:11;;;;;;;0.60;0.60;;;16.10;88.40;;;;;;4955614;29;20435;-74
2022/10/02 13:02:14;;;;;;;0.60;0.60;;;16.10;88.20;;;;;;4955072;28;20998;-74
2022/10/02 13:05:31;;;;;;;0.60;0.60;;;16.20;88.50;;;;;;4955541;29;20435;-74
2022/10/02 13:08:24;;;;;;;0.60;0.50;;;16.20;88.50;;;;;;4955216;28;20486;-74
2022/10/02 13:11:00;;;;;;;0.63;0.57;;;16.10;88.80;;;;;;4955405;28;20518;-74
2022/10/02 13:13:44;;;;;;;0.60;0.60;;;16.10;88.70;;;;;;4955396;29;20465;-74
2022/10/02 13:16:21;;;;;;;0.60;0.60;;;16.10;89.10;;;;;;4955617;29;20435;-74
2022/10/02 13:19:08;;;;;;;0.60;0.50;;;16.10;88.90;;;;;;4955233;29;20431;-74
2022/10/02 13:21:46;;;;;;;0.60;0.50;;;16.10;88.70;;;;;;4955090;28;20463;-74
2022/10/02 13:24:30;;;;;;;0.60;0.50;;;16.10;88.70;;;;;;4955166;29;20518;-74
2022/10/02 13:27:05;;;;;;;0.60;0.60;;;16.10;88.10;;;;;;4955122;29;20435;-74
2022/10/02 13:29:46;;;;;;;0.63;0.60;;;16.10;88.30;;;;;;4955298;29;20466;-75
2022/10/02 13:32:54;;;;;;;0.70;0.60;;;16.00;87.90;;;;;;4955070;28;20478;-76
2022/10/02 13:35:35;;;;;;;1.03;0.50;;;16.00;88.50;;;;;;4955333;28;20435;-75
2022/10/02 13:38:14;;;;;;;0.60;0.50;;;16.00;88.70;;;;;;4955123;29;20494;-76
2022/10/02 13:40:49;;;;;;;0.60;0.50;;;16.10;88.60;;;;;;4954816;28;20908;-75
2022/10/02 13:43:42;;;;;;;1.07;0.50;;;16.20;88.60;;;;;;4954847;28;20431;-76
2022/10/02 13:46:21;;;;;;;0.60;0.50;;;16.30;88.30;;;;;;4955108;29;20454;-75
2022/10/02 13:49:02;;;;;;;0.60;0.50;;;16.40;87.90;;;;;;4960897;29;20436;-76
2022/10/02 13:51:36;;;;;;;0.60;0.50;;;16.30;88.30;;;;;;4961248;28;20505;-75
2022/10/02 13:54:17;;;;;;;0.60;0.50;;;16.40;87.70;;;;;;4961851;29;20446;-75
2022/10/02 13:56:51;;;;;;;0.60;0.50;;;16.50;88.00;;;;;;4962221;29;20424;-75
2022/10/02 13:59:43;;;;;;;0.60;0.50;;;16.50;87.80;;;;;;4962410;29;20442;-75
2022/10/02 14:02:23;;;;;;;0.60;0.50;;;16.70;87.60;;;;;;4962547;28;20479;-75
2022/10/02 14:04:57;;;;;;;0.60;0.50;;;16.60;86.80;;;;;;4963037;28;20448;-75
2022/10/02 14:07:52;;;;;;;0.60;0.60;;;16.80;86.80;;;;;;4965179;29;20432;-76
2022/10/02 14:10:36;;;;;;;0.60;0.50;;;16.80;86.70;;;;;;4967311;28;20955;-76
2022/10/02 14:13:17;;;;;;;0.70;0.50;;;16.80;86.10;;;;;;4965378;29;20462;-75
2022/10/02 14:15:56;;;;;;;0.60;0.50;;;16.70;86.20;;;;;;4965252;29;20435;-76
2022/10/02 14:18:36;;;;;;;0.60;0.50;;;16.70;85.90;;;;;;4965019;29;20416;-77
2022/10/02 14:21:13;;;;;;;0.60;0.50;;;16.40;86.40;;;;;;4965712;28;20475;-75
2022/10/02 14:23:55;;;;;;;0.60;0.50;;;16.10;87.70;;;;;;4966323;29;20903;-75
2022/10/02 14:26:32;;;;;;;0.60;0.50;;;16.00;88.30;;;;;;4966174;28;20407;-75
2022/10/02 14:29:23;;;;;;;0.60;0.50;;;15.90;88.60;;;;;;4965953;29;20431;-77
2022/10/02 14:32:41;;;;;;;1.17;0.60;;;15.90;88.80;;;;;;4966033;28;20478;-75
2022/10/02 14:35:32;;;;;;;0.60;0.50;;;15.70;89.20;;;;;;4965704;29;20439;-75
2022/10/02 14:38:22;;;;;;;0.60;0.50;;;15.60;89.20;;;;;;4964667;29;20436;-76
2022/10/02 14:40:53;;;;;;;0.60;0.50;;;15.60;89.10;;;;;;4963997;28;20467;-75
2022/10/02 14:43:54;;;;;;;0.60;0.50;;;15.70;89.70;;;;;;4963835;29;20431;-75
2022/10/02 14:46:37;;;;;;;0.60;0.50;;;15.90;89.60;;;;;;4963948;28;20466;-74
2022/10/02 14:49:26;;;;;;;0.60;0.50;;;16.00;89.10;;;;;;4964645;29;20419;-75
2022/10/02 14:52:12;;;;;;;0.60;0.60;;;16.10;88.10;;;;;;4965676;28;20978;-74
2022/10/02 14:55:00;;;;;;;0.60;0.50;;;16.20;87.70;;;;;;4966138;29;20412;-76
2022/10/02 14:57:38;;;;;;;0.60;0.50;;;16.30;86.80;;;;;;4963418;29;20459;-75
2022/10/02 15:00:16;;;;;;;0.60;0.60;;;16.10;86.60;;;;;;4964704;29;20439;-73
2022/10/02 15:03:12;;;;;;;0.70;0.60;;;16.00;87.00;;;;;;4965035;28;20550;-75
2022/10/02 15:06:17;;;;;;;0.60;0.50;;;15.90;87.00;;;;;;4961502;29;20447;-75
2022/10/02 15:08:49;;;;;;;0.60;0.50;;;15.80;87.30;;;;;;4965158;28;20836;-75
2022/10/02 15:11:25;;;;;;;0.60;0.60;;;15.90;87.40;;;;;;4964937;28;20491;-75
2022/10/02 15:13:57;;;;;;;0.60;0.60;;;15.90;87.30;;;;;;4965827;29;21033;-76
2022/10/02 15:19:24;;;;;;;0.70;0.60;;;16.10;86.90;;;;;;4961022;29;20484;-76
2022/10/02 15:21:59;;;;;;;1.23;0.60;;;16.10;86.50;;;;;;4957433;28;20468;-76
2022/10/02 15:24:32;;;;;;;0.70;0.63;;;16.00;86.30;;;;;;4957357;29;20443;-77
2022/10/02 15:27:09;;;;;;;0.60;0.60;;;16.00;86.00;;;;;;4957359;29;20514;-76
2022/10/02 15:29:47;;;;;;;0.70;0.50;;;16.00;86.20;;;;;;4957141;29;20475;-76
2022/10/02 15:32:34;;;;;;;0.60;0.50;;;15.90;86.00;;;;;;4956981;28;20983;-76
2022/10/02 15:35:18;;;;;;;0.60;0.50;;;15.90;85.90;;;;;;4957153;28;20438;-77
2022/10/02 15:38:01;;;;;;;0.60;0.50;;;15.90;85.90;;;;;;4956734;29;20904;-76
2022/10/02 15:40:35;;;;;;;0.70;0.50;;;15.90;86.10;;;;;;4956978;28;20432;-77
2022/10/02 15:43:25;;;;;;;0.60;0.60;;;16.00;86.10;;;;;;4957697;29;20444;-75
2022/10/02 15:46:02;;;;;;;0.60;0.50;;;16.10;86.10;;;;;;4957378;29;20494;-76
2022/10/02 15:48:57;;;;;;;0.60;0.60;;;16.10;86.20;;;;;;4956660;29;20991;-74
2022/10/02 15:51:42;;;;;;;0.60;0.60;;;16.00;86.20;;;;;;4943298;28;20530;-73
2022/10/02 15:54:21;;;;;;;0.60;0.60;;;16.10;86.20;;;;;;4957277;29;20450;-75
2022/10/02 15:57:17;;;;;;;0.70;0.60;;;16.10;86.00;;;;;;4956348;29;20431;-75
2022/10/02 16:00:01;;;;;;;0.60;0.60;;;16.20;86.00;;;;;;4956655;29;20490;-75
2022/10/02 16:02:55;;;;;;;0.60;0.60;;;16.10;86.00;;;;;;4956322;28;20518;-76
2022/10/02 16:05:37;;;;;;;0.60;0.60;;;16.10;86.00;;;;;;4957044;28;20464;-75
2022/10/02 16:08:28;;;;;;;0.70;0.70;;;16.20;85.80;;;;;;4956423;29;20930;-74
2022/10/02 16:11:27;;;;;;;0.80;0.77;;;16.20;85.50;;;;;;4956128;28;20494;-75
2022/10/02 16:14:01;;;;;;;0.60;0.60;;;16.20;85.70;;;;;;4956082;29;20789;-75
2022/10/02 16:16:52;;;;;;;0.60;0.50;;;16.20;85.40;;;;;;4956372;29;20435;-75
2022/10/02 16:19:33;;;;;;;0.60;0.50;;;16.20;85.40;;;;;;4956309;28;20436;-75
2022/10/02 16:22:16;;;;;;;0.60;0.60;;;16.10;85.50;;;;;;4956138;28;20838;-75
2022/10/02 16:25:06;;;;;;;0.70;0.60;;;16.00;86.50;;;;;;4956528;29;20427;-75
2022/10/02 16:27:51;;;;;;;0.70;0.60;;;16.00;86.30;;;;;;4956089;28;20455;-74
2022/10/02 16:30:21;;;;;;;0.80;0.70;;;16.00;86.10;;;;;;4955955;29;20478;-74
2022/10/02 16:33:05;;;;;;;0.80;0.70;;;15.90;86.20;;;;;;4955599;28;20862;-76
2022/10/02 16:35:53;;;;;;;0.70;0.70;;;15.80;87.10;;;;;;4955964;28;20439;-75
2022/10/02 16:38:27;;;;;;;0.80;0.70;;;15.80;86.90;;;;;;4955931;29;20435;-74
2022/10/02 16:40:57;;;;;;;0.60;0.60;;;15.90;86.70;;;;;;4955564;28;21001;-75
2022/10/02 16:43:46;;;;;;;0.80;0.80;;;15.80;86.90;;;;;;4955404;29;20982;-75
2022/10/02 16:46:20;;;;;;;0.70;0.70;;;15.90;86.80;;;;;;4955691;28;20435;-78
2022/10/02 16:48:55;;;;;;;0.80;0.80;;;15.90;86.60;;;;;;4955644;29;20806;-75
2022/10/02 16:51:44;;;;;;;0.70;0.70;;;15.90;86.60;;;;;;4955392;28;20495;-75
2022/10/02 16:54:17;;;;;;;0.70;0.70;;;15.90;86.50;;;;;;4955783;28;20522;-76
2022/10/02 16:56:52;;;;;;;0.60;0.50;;;15.90;86.70;;;;;;4955633;29;20911;-75
2022/10/02 16:59:25;;;;;;;0.60;0.60;;;15.90;86.60;;;;;;4955411;29;20911;-75
2022/10/02 17:01:56;;;;;;;0.60;0.50;;;15.90;86.80;;;;;;4955254;28;20474;-76
2022/10/02 17:04:32;;;;;;;0.60;0.60;;;15.90;86.80;;;;;;4955624;29;20416;-75
2022/10/02 17:07:02;;;;;;;1.07;0.73;;;15.80;86.70;;;;;;4955611;28;20935;-75
2022/10/02 17:09:40;;;;;;;0.80;0.80;;;15.80;86.80;;;;;;4955696;29;20494;-77
2022/10/02 17:12:15;;;;;;;0.70;0.67;;;15.90;86.80;;;;;;4956265;28;20478;-76
2022/10/02 17:14:49;;;;;;;0.70;0.70;;;15.90;86.90;;;;;;4967746;29;20439;-77
2022/10/02 17:17:22;;;;;;;0.70;0.60;;;15.90;86.70;;;;;;4962949;28;20451;-75
2022/10/02 17:19:53;;;;;;;0.60;0.60;;;15.90;86.70;;;;;;4962579;29;20430;-75
2022/10/02 17:22:31;;;;;;;1.07;0.80;;;15.90;86.50;;;;;;4962605;28;20477;-77